sensor_id;sensor_type;location;lat;lon;timestamp;pressure;altitude;pressure_sealevel;temperature;humidity
11971;BME280;6045;42.682;23.294;2022-10-12T00:01:07;95228.47;;;15.67;80.76
11971;BME280;6045;42.682;23.294;2022-10-12T00:03:34;95229.78;;;15.64;80.93
11971;BME280;6045;42.682;23.294;2022-10-12T00:06:03;95226.69;;;15.56;81.20
11971;BME280;6045;42.682;23.294;2022-10-12T00:08:30;95226.78;;;15.61;81.57
11971;BME280;6045;42.682;23.294;2022-10-12T00:10:57;95221.69;;;15.64;81.36
11971;BME280;6045;42.682;23.294;2022-10-12T00:13:26;95224.66;;;15.63;80.94
11971;BME280;6045;42.682;23.294;2022-10-12T00:15:53;95219.34;;;15.51;80.93
11971;BME280;6045;42.682;23.294;2022-10-12T00:18:19;95229.06;;;15.52;81.19
11971;BME280;6045;42.682;23.294;2022-10-12T00:20:46;95222.34;;;15.55;81.21
11971;BME280;6045;42.682;23.294;2022-10-12T00:23:13;95214.63;;;15.58;81.58
11971;BME280;6045;42.682;23.294;2022-10-12T00:25:40;95213.53;;;15.59;80.89
11971;BME280;6045;42.682;23.294;2022-10-12T00:28:07;95216.00;;;15.61;80.83
11971;BME280;6045;42.682;23.294;2022-10-12T00:30:38;95216.47;;;15.58;80.81
11971;BME280;6045;42.682;23.294;2022-10-12T00:33:05;95214.91;;;15.62;80.81
11971;BME280;6045;42.682;23.294;2022-10-12T00:35:32;95210.34;;;15.62;81.29
11971;BME280;6045;42.682;23.294;2022-10-12T00:37:59;95209.88;;;15.65;80.45
11971;BME280;6045;42.682;23.294;2022-10-12T00:40:26;95214.69;;;15.63;80.31
11971;BME280;6045;42.682;23.294;2022-10-12T00:42:52;95208.47;;;15.63;80.13
11971;BME280;6045;42.682;23.294;2022-10-12T00:45:19;95214.34;;;15.60;80.47
11971;BME280;6045;42.682;23.294;2022-10-12T00:47:49;95203.34;;;15.61;80.57
11971;BME280;6045;42.682;23.294;2022-10-12T00:50:21;95199.56;;;15.62;80.91
11971;BME280;6045;42.682;23.294;2022-10-12T00:52:54;95204.22;;;15.67;80.66
11971;BME280;6045;42.682;23.294;2022-10-12T00:55:26;95198.28;;;15.65;80.85
11971;BME280;6045;42.682;23.294;2022-10-12T00:57:55;95204.72;;;15.64;80.66
11971;BME280;6045;42.682;23.294;2022-10-12T01:00:22;95199.31;;;15.64;80.60
11971;BME280;6045;42.682;23.294;2022-10-12T01:02:52;95208.31;;;15.69;80.45
11971;BME280;6045;42.682;23.294;2022-10-12T01:05:20;95206.69;;;15.68;80.41
11971;BME280;6045;42.682;23.294;2022-10-12T01:07:48;95208.66;;;15.73;80.61
11971;BME280;6045;42.682;23.294;2022-10-12T01:10:15;95207.19;;;15.65;80.54
11971;BME280;6045;42.682;23.294;2022-10-12T01:12:43;95207.41;;;15.64;80.78
11971;BME280;6045;42.682;23.294;2022-10-12T01:15:12;95206.69;;;15.68;80.71
11971;BME280;6045;42.682;23.294;2022-10-12T01:17:46;95216.66;;;15.68;80.61
11971;BME280;6045;42.682;23.294;2022-10-12T01:20:43;95210.69;;;15.66;81.20
11971;BME280;6045;42.682;23.294;2022-10-12T01:23:48;95204.97;;;15.62;81.61
11971;BME280;6045;42.682;23.294;2022-10-12T01:29:36;95202.44;;;15.56;82.34
11971;BME280;6045;42.682;23.294;2022-10-12T01:32:14;95212.66;;;15.54;82.82
11971;BME280;6045;42.682;23.294;2022-10-12T01:34:46;95208.88;;;15.55;82.33
11971;BME280;6045;42.682;23.294;2022-10-12T01:37:20;95215.66;;;15.57;82.16
11971;BME280;6045;42.682;23.294;2022-10-12T01:39:51;95214.34;;;15.60;82.76
11971;BME280;6045;42.682;23.294;2022-10-12T01:42:23;95199.00;;;15.60;82.69
11971;BME280;6045;42.682;23.294;2022-10-12T01:45:00;95204.13;;;15.62;82.44
11971;BME280;6045;42.682;23.294;2022-10-12T01:47:29;95209.63;;;15.67;82.05
11971;BME280;6045;42.682;23.294;2022-10-12T01:49:56;95213.97;;;15.68;81.71
11971;BME280;6045;42.682;23.294;2022-10-12T01:52:27;95206.34;;;15.65;82.36
11971;BME280;6045;42.682;23.294;2022-10-12T01:55:19;95212.88;;;15.69;81.56
11971;BME280;6045;42.682;23.294;2022-10-12T01:58:00;95210.44;;;15.67;82.40
11971;BME280;6045;42.682;23.294;2022-10-12T02:00:29;95216.13;;;15.71;82.13
11971;BME280;6045;42.682;23.294;2022-10-12T02:03:04;95219.09;;;15.69;81.73
11971;BME280;6045;42.682;23.294;2022-10-12T02:05:37;95211.47;;;15.66;81.79
11971;BME280;6045;42.682;23.294;2022-10-12T02:08:17;95208.47;;;15.63;82.32
11971;BME280;6045;42.682;23.294;2022-10-12T02:10:51;95218.88;;;15.54;82.43
11971;BME280;6045;42.682;23.294;2022-10-12T02:13:21;95224.00;;;15.56;83.46
11971;BME280;6045;42.682;23.294;2022-10-12T02:15:50;95222.13;;;15.56;83.60
11971;BME280;6045;42.682;23.294;2022-10-12T02:18:20;95228.56;;;15.55;83.36
11971;BME280;6045;42.682;23.294;2022-10-12T02:20:50;95229.13;;;15.57;82.94
11971;BME280;6045;42.682;23.294;2022-10-12T02:23:20;95225.88;;;15.55;82.90
11971;BME280;6045;42.682;23.294;2022-10-12T02:25:49;95232.56;;;15.53;83.66
11971;BME280;6045;42.682;23.294;2022-10-12T02:28:20;95235.25;;;15.53;83.21
11971;BME280;6045;42.682;23.294;2022-10-12T02:30:53;95242.28;;;15.54;83.41
11971;BME280;6045;42.682;23.294;2022-10-12T02:33:28;95238.28;;;15.56;83.52
11971;BME280;6045;42.682;23.294;2022-10-12T02:35:59;95237.47;;;15.56;83.15
11971;BME280;6045;42.682;23.294;2022-10-12T02:38:31;95245.00;;;15.54;83.75
11971;BME280;6045;42.682;23.294;2022-10-12T02:41:01;95231.81;;;15.57;83.43
11971;BME280;6045;42.682;23.294;2022-10-12T02:43:35;95224.47;;;15.53;83.52
11971;BME280;6045;42.682;23.294;2022-10-12T02:46:04;95236.41;;;15.57;83.27
11971;BME280;6045;42.682;23.294;2022-10-12T02:48:35;95230.22;;;15.56;82.94
11971;BME280;6045;42.682;23.294;2022-10-12T02:51:05;95227.09;;;15.48;83.52
11971;BME280;6045;42.682;23.294;2022-10-12T02:53:33;95241.97;;;15.50;83.49
11971;BME280;6045;42.682;23.294;2022-10-12T02:56:02;95230.94;;;15.52;82.81
11971;BME280;6045;42.682;23.294;2022-10-12T02:58:30;95228.25;;;15.52;82.85
11971;BME280;6045;42.682;23.294;2022-10-12T03:00:56;95232.09;;;15.56;82.57
11971;BME280;6045;42.682;23.294;2022-10-12T03:03:23;95238.78;;;15.53;82.56
11971;BME280;6045;42.682;23.294;2022-10-12T03:05:52;95233.97;;;15.55;83.10
11971;BME280;6045;42.682;23.294;2022-10-12T03:08:19;95234.22;;;15.54;82.82
11971;BME280;6045;42.682;23.294;2022-10-12T03:10:45;95228.81;;;15.54;83.12
11971;BME280;6045;42.682;23.294;2022-10-12T03:13:12;95234.78;;;15.56;83.09
11971;BME280;6045;42.682;23.294;2022-10-12T03:15:39;95236.34;;;15.52;83.12
11971;BME280;6045;42.682;23.294;2022-10-12T03:18:06;95233.13;;;15.55;83.00
11971;BME280;6045;42.682;23.294;2022-10-12T03:20:32;95230.69;;;15.53;82.75
11971;BME280;6045;42.682;23.294;2022-10-12T03:23:01;95222.28;;;15.50;82.77
11971;BME280;6045;42.682;23.294;2022-10-12T03:25:28;95222.53;;;15.48;83.06
11971;BME280;6045;42.682;23.294;2022-10-12T03:27:54;95226.97;;;15.43;83.92
11971;BME280;6045;42.682;23.294;2022-10-12T03:30:21;95220.78;;;15.42;83.97
11971;BME280;6045;42.682;23.294;2022-10-12T03:32:48;95226.97;;;15.43;83.23
11971;BME280;6045;42.682;23.294;2022-10-12T03:35:15;95225.34;;;15.42;83.40
11971;BME280;6045;42.682;23.294;2022-10-12T03:37:42;95229.66;;;15.43;83.49
11971;BME280;6045;42.682;23.294;2022-10-12T03:40:11;95232.22;;;15.33;84.31
11971;BME280;6045;42.682;23.294;2022-10-12T03:42:38;95224.34;;;15.31;84.95
11971;BME280;6045;42.682;23.294;2022-10-12T03:45:05;95234.09;;;15.32;84.69
11971;BME280;6045;42.682;23.294;2022-10-12T03:47:33;95243.47;;;15.30;84.96
11971;BME280;6045;42.682;23.294;2022-10-12T03:49:59;95227.69;;;15.22;85.09
11971;BME280;6045;42.682;23.294;2022-10-12T03:52:26;95228.03;;;15.25;85.24
11971;BME280;6045;42.682;23.294;2022-10-12T03:54:53;95232.13;;;15.28;84.59
11971;BME280;6045;42.682;23.294;2022-10-12T03:57:21;95223.97;;;15.23;85.00
11971;BME280;6045;42.682;23.294;2022-10-12T03:59:48;95234.56;;;15.29;85.14
11971;BME280;6045;42.682;23.294;2022-10-12T04:02:15;95231.66;;;15.31;85.80
11971;BME280;6045;42.682;23.294;2022-10-12T04:04:42;95230.66;;;15.37;85.78
11971;BME280;6045;42.682;23.294;2022-10-12T04:07:09;95232.31;;;15.38;85.77
11971;BME280;6045;42.682;23.294;2022-10-12T04:09:36;95235.56;;;15.40;85.52
11971;BME280;6045;42.682;23.294;2022-10-12T04:12:03;95235.06;;;15.43;85.26
11971;BME280;6045;42.682;23.294;2022-10-12T04:14:31;95236.69;;;15.44;85.13
11971;BME280;6045;42.682;23.294;2022-10-12T04:16:58;95235.06;;;15.43;84.69
11971;BME280;6045;42.682;23.294;2022-10-12T04:19:25;95242.47;;;15.47;85.61
11971;BME280;6045;42.682;23.294;2022-10-12T04:21:51;95241.38;;;15.48;84.91
11971;BME280;6045;42.682;23.294;2022-10-12T04:24:18;95241.63;;;15.47;85.22
11971;BME280;6045;42.682;23.294;2022-10-12T04:26:45;95246.47;;;15.45;84.95
11971;BME280;6045;42.682;23.294;2022-10-12T04:29:12;95246.59;;;15.71;89.69
11971;BME280;6045;42.682;23.294;2022-10-12T04:31:41;95243.28;;;16.19;91.74
11971;BME280;6045;42.682;23.294;2022-10-12T04:34:08;95249.72;;;16.57;87.99
11971;BME280;6045;42.682;23.294;2022-10-12T04:36:34;95249.91;;;16.72;85.54
11971;BME280;6045;42.682;23.294;2022-10-12T04:39:02;95248.75;;;16.89;84.26
11971;BME280;6045;42.682;23.294;2022-10-12T04:41:28;95249.22;;;17.08;83.30
11971;BME280;6045;42.682;23.294;2022-10-12T04:43:55;95253.09;;;17.17;79.73
11971;BME280;6045;42.682;23.294;2022-10-12T04:46:22;95257.31;;;17.08;76.95
11971;BME280;6045;42.682;23.294;2022-10-12T04:48:50;95251.22;;;16.91;77.31
11971;BME280;6045;42.682;23.294;2022-10-12T04:51:18;95257.06;;;16.83;77.67
11971;BME280;6045;42.682;23.294;2022-10-12T04:53:45;95263.34;;;16.67;78.03
11971;BME280;6045;42.682;23.294;2022-10-12T04:56:11;95262.47;;;16.44;79.02
11971;BME280;6045;42.682;23.294;2022-10-12T04:58:38;95263.34;;;16.28;79.56
11971;BME280;6045;42.682;23.294;2022-10-12T05:01:05;95264.28;;;16.17;80.38
11971;BME280;6045;42.682;23.294;2022-10-12T05:03:32;95263.66;;;16.10;81.08
11971;BME280;6045;42.682;23.294;2022-10-12T05:06:00;95267.31;;;16.04;80.83
11971;BME280;6045;42.682;23.294;2022-10-12T05:08:27;95271.50;;;15.79;83.18
11971;BME280;6045;42.682;23.294;2022-10-12T05:10:54;95275.44;;;15.71;84.60
11971;BME280;6045;42.682;23.294;2022-10-12T05:13:23;95268.72;;;15.57;85.54
11971;BME280;6045;42.682;23.294;2022-10-12T05:15:52;95269.50;;;15.41;85.58
11971;BME280;6045;42.682;23.294;2022-10-12T05:18:19;95272.13;;;15.36;86.21
11971;BME280;6045;42.682;23.294;2022-10-12T05:20:45;95279.63;;;15.34;85.85
11971;BME280;6045;42.682;23.294;2022-10-12T05:23:13;95277.66;;;15.29;86.33
11971;BME280;6045;42.682;23.294;2022-10-12T05:25:40;95290.56;;;15.27;86.27
11971;BME280;6045;42.682;23.294;2022-10-12T05:28:07;95287.19;;;15.20;86.87
11971;BME280;6045;42.682;23.294;2022-10-12T05:30:34;95283.13;;;15.34;86.51
11971;BME280;6045;42.682;23.294;2022-10-12T05:33:01;95287.66;;;15.45;85.73
11971;BME280;6045;42.682;23.294;2022-10-12T05:35:28;95296.19;;;15.54;85.26
11971;BME280;6045;42.682;23.294;2022-10-12T05:37:54;95292.41;;;15.55;84.88
11971;BME280;6045;42.682;23.294;2022-10-12T05:40:23;95294.63;;;15.58;84.78
11971;BME280;6045;42.682;23.294;2022-10-12T05:42:50;95296.84;;;15.61;85.12
11971;BME280;6045;42.682;23.294;2022-10-12T05:45:16;95299.63;;;15.66;84.82
11971;BME280;6045;42.682;23.294;2022-10-12T05:47:43;95303.38;;;15.65;84.51
11971;BME280;6045;42.682;23.294;2022-10-12T05:50:10;95302.47;;;15.59;84.81
11971;BME280;6045;42.682;23.294;2022-10-12T05:52:37;95304.66;;;15.62;85.20
11971;BME280;6045;42.682;23.294;2022-10-12T05:55:04;95307.94;;;15.64;85.00
11971;BME280;6045;42.682;23.294;2022-10-12T05:57:33;95308.75;;;15.65;85.02
11971;BME280;6045;42.682;23.294;2022-10-12T06:00:01;95318.41;;;15.61;85.40
11971;BME280;6045;42.682;23.294;2022-10-12T06:02:28;95313.75;;;15.56;84.87
11971;BME280;6045;42.682;23.294;2022-10-12T06:04:55;95320.03;;;15.62;84.87
11971;BME280;6045;42.682;23.294;2022-10-12T06:07:21;95321.75;;;15.68;84.83
11971;BME280;6045;42.682;23.294;2022-10-12T06:09:48;95321.84;;;15.73;84.50
11971;BME280;6045;42.682;23.294;2022-10-12T06:12:15;95324.53;;;15.73;84.02
11971;BME280;6045;42.682;23.294;2022-10-12T06:14:43;95329.34;;;15.71;84.28
11971;BME280;6045;42.682;23.294;2022-10-12T06:17:10;95320.75;;;15.74;84.31
11971;BME280;6045;42.682;23.294;2022-10-12T06:19:37;95326.72;;;15.76;84.18
11971;BME280;6045;42.682;23.294;2022-10-12T06:22:04;95320.75;;;15.74;84.80
11971;BME280;6045;42.682;23.294;2022-10-12T06:24:31;95327.25;;;15.73;84.75
11971;BME280;6045;42.682;23.294;2022-10-12T06:26:58;95328.94;;;15.79;84.30
11971;BME280;6045;42.682;23.294;2022-10-12T06:29:24;95332.28;;;15.86;84.41
11971;BME280;6045;42.682;23.294;2022-10-12T06:31:53;95333.44;;;15.90;84.02
11971;BME280;6045;42.682;23.294;2022-10-12T06:34:19;95337.78;;;15.91;83.61
11971;BME280;6045;42.682;23.294;2022-10-12T06:36:46;95340.38;;;16.03;82.87
11971;BME280;6045;42.682;23.294;2022-10-12T06:39:14;95336.47;;;15.94;83.90
11971;BME280;6045;42.682;23.294;2022-10-12T06:41:41;95343.25;;;15.96;84.65
11971;BME280;6045;42.682;23.294;2022-10-12T06:44:08;95352.66;;;16.10;83.35
11971;BME280;6045;42.682;23.294;2022-10-12T06:46:35;95343.06;;;16.19;81.45
11971;BME280;6045;42.682;23.294;2022-10-12T06:49:03;95348.13;;;16.16;80.47
11971;BME280;6045;42.682;23.294;2022-10-12T06:51:30;95348.94;;;16.16;81.32
11971;BME280;6045;42.682;23.294;2022-10-12T06:53:57;95346.06;;;16.23;81.59
11971;BME280;6045;42.682;23.294;2022-10-12T06:56:23;95348.03;;;16.27;80.41
11971;BME280;6045;42.682;23.294;2022-10-12T06:58:53;95356.28;;;16.37;79.58
11971;BME280;6045;42.682;23.294;2022-10-12T07:01:20;95355.81;;;16.40;79.25
11971;BME280;6045;42.682;23.294;2022-10-12T07:03:47;95345.16;;;16.51;79.32
11971;BME280;6045;42.682;23.294;2022-10-12T07:06:15;95348.53;;;16.58;79.26
11971;BME280;6045;42.682;23.294;2022-10-12T07:08:42;95352.53;;;16.55;79.80
11971;BME280;6045;42.682;23.294;2022-10-12T07:11:10;95359.88;;;16.60;79.67
11971;BME280;6045;42.682;23.294;2022-10-12T07:13:38;95359.41;;;16.63;79.39
11971;BME280;6045;42.682;23.294;2022-10-12T07:16:05;95359.22;;;16.69;79.17
11971;BME280;6045;42.682;23.294;2022-10-12T07:18:32;95355.75;;;16.74;79.24
11971;BME280;6045;42.682;23.294;2022-10-12T07:20:59;95356.25;;;16.71;78.61
11971;BME280;6045;42.682;23.294;2022-10-12T07:23:28;95361.72;;;16.76;78.64
11971;BME280;6045;42.682;23.294;2022-10-12T07:25:55;95349.97;;;16.87;78.53
11971;BME280;6045;42.682;23.294;2022-10-12T07:28:22;95352.25;;;16.95;77.95
11971;BME280;6045;42.682;23.294;2022-10-12T07:30:49;95356.66;;;17.01;77.44
11971;BME280;6045;42.682;23.294;2022-10-12T07:33:16;95356.97;;;17.04;76.27
11971;BME280;6045;42.682;23.294;2022-10-12T07:35:52;95354.63;;;17.13;76.37
11971;BME280;6045;42.682;23.294;2022-10-12T07:38:18;95357.97;;;17.20;75.98
11971;BME280;6045;42.682;23.294;2022-10-12T07:40:47;95362.31;;;17.21;76.06
11971;BME280;6045;42.682;23.294;2022-10-12T07:43:14;95359.13;;;17.29;75.55
11971;BME280;6045;42.682;23.294;2022-10-12T07:45:41;95368.06;;;17.30;75.07
11971;BME280;6045;42.682;23.294;2022-10-12T07:48:08;95362.22;;;17.38;74.65
11971;BME280;6045;42.682;23.294;2022-10-12T07:50:35;95372.50;;;17.41;74.86
11971;BME280;6045;42.682;23.294;2022-10-12T07:53:02;95368.00;;;17.46;74.30
11971;BME280;6045;42.682;23.294;2022-10-12T07:55:29;95370.06;;;17.39;73.72
11971;BME280;6045;42.682;23.294;2022-10-12T07:57:57;95368.34;;;17.28;74.12
11971;BME280;6045;42.682;23.294;2022-10-12T08:00:24;95362.31;;;17.21;73.95
11971;BME280;6045;42.682;23.294;2022-10-12T08:02:51;95363.31;;;17.15;74.96
11971;BME280;6045;42.682;23.294;2022-10-12T08:05:18;95361.69;;;17.14;75.12
11971;BME280;6045;42.682;23.294;2022-10-12T08:07:45;95356.72;;;17.06;75.55
11971;BME280;6045;42.682;23.294;2022-10-12T08:10:13;95361.75;;;16.97;75.40
11971;BME280;6045;42.682;23.294;2022-10-12T08:12:40;95365.69;;;16.90;75.27
11971;BME280;6045;42.682;23.294;2022-10-12T08:15:09;95360.56;;;16.88;nan
11971;BME280;6045;42.682;23.294;2022-10-12T08:17:37;95360.94;;;16.97;75.49
11971;BME280;6045;42.682;23.294;2022-10-12T08:20:05;95361.28;;;17.05;75.69
11971;BME280;6045;42.682;23.294;2022-10-12T08:22:32;95369.53;;;17.16;75.55
11971;BME280;6045;42.682;23.294;2022-10-12T08:24:59;95360.59;;;17.15;75.14
11971;BME280;6045;42.682;23.294;2022-10-12T08:27:29;95362.75;;;17.13;75.01
11971;BME280;6045;42.682;23.294;2022-10-12T08:29:56;95361.91;;;17.13;74.62
11971;BME280;6045;42.682;23.294;2022-10-12T08:32:24;95357.53;;;17.06;74.49
11971;BME280;6045;42.682;23.294;2022-10-12T08:34:51;95361.63;;;17.09;74.49
11971;BME280;6045;42.682;23.294;2022-10-12T08:37:18;95365.00;;;17.21;73.97
11971;BME280;6045;42.682;23.294;2022-10-12T08:39:45;95358.91;;;17.31;73.99
11971;BME280;6045;42.682;23.294;2022-10-12T08:42:22;95360.28;;;17.33;73.56
11971;BME280;6045;42.682;23.294;2022-10-12T08:45:29;95362.16;;;17.33;72.96
11971;BME280;6045;42.682;23.294;2022-10-12T08:48:07;95353.50;;;17.31;73.52
11971;BME280;6045;42.682;23.294;2022-10-12T08:50:39;95357.19;;;17.46;72.70
11971;BME280;6045;42.682;23.294;2022-10-12T08:53:12;95355.19;;;17.37;72.15
11971;BME280;6045;42.682;23.294;2022-10-12T08:55:44;95354.44;;;17.20;73.02
11971;BME280;6045;42.682;23.294;2022-10-12T08:58:15;95355.66;;;17.07;73.13
11971;BME280;6045;42.682;23.294;2022-10-12T09:00:46;95354.50;;;17.03;73.32
11971;BME280;6045;42.682;23.294;2022-10-12T09:03:29;95358.28;;;17.02;73.90
11971;BME280;6045;42.682;23.294;2022-10-12T09:06:07;95356.16;;;17.04;73.45
11971;BME280;6045;42.682;23.294;2022-10-12T09:08:56;95343.22;;;17.06;73.67
11971;BME280;6045;42.682;23.294;2022-10-12T09:11:37;95355.72;;;17.12;73.93
11971;BME280;6045;42.682;23.294;2022-10-12T09:14:13;95351.63;;;17.09;73.32
11971;BME280;6045;42.682;23.294;2022-10-12T09:16:45;95357.66;;;16.95;74.44
11971;BME280;6045;42.682;23.294;2022-10-12T09:19:19;95351.63;;;16.88;73.44
11971;BME280;6045;42.682;23.294;2022-10-12T09:21:48;95361.81;;;16.81;73.68
11971;BME280;6045;42.682;23.294;2022-10-12T09:24:18;95360.69;;;16.77;74.17
11971;BME280;6045;42.682;23.294;2022-10-12T09:26:49;95349.97;;;16.87;75.64
11971;BME280;6045;42.682;23.294;2022-10-12T09:29:22;95353.44;;;17.04;74.98
11971;BME280;6045;42.682;23.294;2022-10-12T09:32:04;95346.44;;;17.30;75.06
11971;BME280;6045;42.682;23.294;2022-10-12T09:34:40;95371.00;;;17.50;73.99
11971;BME280;6045;42.682;23.294;2022-10-12T09:37:12;95359.97;;;17.51;73.38
11971;BME280;6045;42.682;23.294;2022-10-12T09:39:42;95352.53;;;17.63;73.53
11971;BME280;6045;42.682;23.294;2022-10-12T09:42:10;95353.44;;;17.74;72.32
11971;BME280;6045;42.682;23.294;2022-10-12T09:44:39;95358.16;;;17.62;71.82
11971;BME280;6045;42.682;23.294;2022-10-12T09:47:22;95354.84;;;17.82;72.19
11971;BME280;6045;42.682;23.294;2022-10-12T09:49:54;95353.69;;;17.99;71.37
11971;BME280;6045;42.682;23.294;2022-10-12T09:52:26;95356.75;;;18.13;71.14
11971;BME280;6045;42.682;23.294;2022-10-12T09:54:56;95353.00;;;18.19;70.36
11971;BME280;6045;42.682;23.294;2022-10-12T09:57:25;95359.00;;;18.26;69.73
11971;BME280;6045;42.682;23.294;2022-10-12T09:59:53;95353.56;;;18.21;70.08
11971;BME280;6045;42.682;23.294;2022-10-12T10:02:21;95352.41;;;18.12;69.58
11971;BME280;6045;42.682;23.294;2022-10-12T10:04:49;95354.34;;;18.16;71.47
11971;BME280;6045;42.682;23.294;2022-10-12T10:07:25;95346.31;;;18.26;71.59
11971;BME280;6045;42.682;23.294;2022-10-12T10:10:13;95338.00;;;18.38;71.08
11971;BME280;6045;42.682;23.294;2022-10-12T10:12:45;95339.72;;;18.49;69.79
11971;BME280;6045;42.682;23.294;2022-10-12T10:15:26;95340.81;;;18.48;70.58
11971;BME280;6045;42.682;23.294;2022-10-12T10:17:55;95340.41;;;18.34;69.81
11971;BME280;6045;42.682;23.294;2022-10-12T10:20:30;95337.28;;;18.48;70.15
11971;BME280;6045;42.682;23.294;2022-10-12T10:22:59;95332.16;;;18.51;69.06
11971;BME280;6045;42.682;23.294;2022-10-12T10:25:28;95333.09;;;18.35;69.43
11971;BME280;6045;42.682;23.294;2022-10-12T10:28:10;95335.00;;;18.34;68.73
11971;BME280;6045;42.682;23.294;2022-10-12T10:30:38;95332.31;;;18.39;67.92
11971;BME280;6045;42.682;23.294;2022-10-12T10:33:14;95329.44;;;18.46;67.33
11971;BME280;6045;42.682;23.294;2022-10-12T10:35:54;95331.59;;;18.49;65.98
11971;BME280;6045;42.682;23.294;2022-10-12T10:38:24;95326.09;;;18.39;65.91
11971;BME280;6045;42.682;23.294;2022-10-12T10:40:51;95320.22;;;18.10;67.72
11971;BME280;6045;42.682;23.294;2022-10-12T10:43:25;95314.72;;;18.00;68.35
11971;BME280;6045;42.682;23.294;2022-10-12T10:45:54;95310.41;;;18.04;68.37
11971;BME280;6045;42.682;23.294;2022-10-12T10:48:26;95317.66;;;17.94;69.19
11971;BME280;6045;42.682;23.294;2022-10-12T10:50:56;95311.19;;;18.00;69.12
11971;BME280;6045;42.682;23.294;2022-10-12T10:53:30;95310.72;;;18.08;69.31
11971;BME280;6045;42.682;23.294;2022-10-12T10:56:01;95301.59;;;18.19;68.88
11971;BME280;6045;42.682;23.294;2022-10-12T10:58:33;95303.66;;;18.43;68.52
11971;BME280;6045;42.682;23.294;2022-10-12T11:01:07;95305.09;;;18.51;68.43
11971;BME280;6045;42.682;23.294;2022-10-12T11:03:45;95308.38;;;18.58;67.60
11971;BME280;6045;42.682;23.294;2022-10-12T11:06:19;95300.84;;;18.65;66.61
11971;BME280;6045;42.682;23.294;2022-10-12T11:09:00;95305.09;;;18.56;67.19
11971;BME280;6045;42.682;23.294;2022-10-12T11:11:31;95293.25;;;18.62;67.49
11971;BME280;6045;42.682;23.294;2022-10-12T11:14:05;95293.25;;;18.67;67.11
11971;BME280;6045;42.682;23.294;2022-10-12T11:16:37;95289.53;;;18.78;66.64
11971;BME280;6045;42.682;23.294;2022-10-12T11:19:18;95291.16;;;18.84;66.37
11971;BME280;6045;42.682;23.294;2022-10-12T11:21:51;95293.41;;;19.02;66.32
11971;BME280;6045;42.682;23.294;2022-10-12T11:24:25;95286.91;;;19.08;65.85
11971;BME280;6045;42.682;23.294;2022-10-12T11:26:56;95296.72;;;19.15;65.36
11971;BME280;6045;42.682;23.294;2022-10-12T11:29:26;95290.50;;;19.24;64.92
11971;BME280;6045;42.682;23.294;2022-10-12T11:31:58;95289.59;;;19.03;64.77
11971;BME280;6045;42.682;23.294;2022-10-12T11:34:30;95284.41;;;18.87;64.90
11971;BME280;6045;42.682;23.294;2022-10-12T11:36:59;95281.69;;;18.87;65.74
11971;BME280;6045;42.682;23.294;2022-10-12T11:39:32;95280.69;;;19.03;64.95
11971;BME280;6045;42.682;23.294;2022-10-12T11:42:00;95280.97;;;19.11;64.50
11971;BME280;6045;42.682;23.294;2022-10-12T11:44:37;95276.66;;;19.21;64.78
11971;BME280;6045;42.682;23.294;2022-10-12T11:47:12;95270.72;;;19.29;63.88
11971;BME280;6045;42.682;23.294;2022-10-12T11:49:47;95273.44;;;19.24;65.47
11971;BME280;6045;42.682;23.294;2022-10-12T11:52:17;95275.06;;;19.35;63.28
11971;BME280;6045;42.682;23.294;2022-10-12T11:54:54;95276.47;;;19.42;63.38
11971;BME280;6045;42.682;23.294;2022-10-12T11:57:27;95279.47;;;19.51;63.12
11971;BME280;6045;42.682;23.294;2022-10-12T11:59:58;95281.09;;;19.52;63.10
11971;BME280;6045;42.682;23.294;2022-10-12T12:02:30;95271.34;;;19.61;62.44
11971;BME280;6045;42.682;23.294;2022-10-12T12:04:58;95276.75;;;19.56;61.91
11971;BME280;6045;42.682;23.294;2022-10-12T12:07:45;95275.94;;;19.45;62.05
11971;BME280;6045;42.682;23.294;2022-10-12T12:13:26;95281.28;;;19.25;61.50
11971;BME280;6045;42.682;23.294;2022-10-12T12:25:24;95271.53;;;19.24;62.73
11971;BME280;6045;42.682;23.294;2022-10-12T12:27:56;95268.00;;;19.34;62.23
11971;BME280;6045;42.682;23.294;2022-10-12T12:30:35;95271.28;;;19.31;62.96
11971;BME280;6045;42.682;23.294;2022-10-12T12:33:06;95275.66;;;19.37;62.16
11971;BME280;6045;42.682;23.294;2022-10-12T12:35:53;95273.97;;;19.31;62.22
11971;BME280;6045;42.682;23.294;2022-10-12T12:38:25;95274.50;;;19.28;62.05
11971;BME280;6045;42.682;23.294;2022-10-12T12:41:04;95276.97;;;19.34;62.79
11971;BME280;6045;42.682;23.294;2022-10-12T12:49:36;95277.22;;;19.28;63.59
11971;BME280;6045;42.682;23.294;2022-10-12T12:52:04;95279.44;;;19.41;63.44
11971;BME280;6045;42.682;23.294;2022-10-12T12:54:42;95281.09;;;19.52;63.49
11971;BME280;6045;42.682;23.294;2022-10-12T12:57:23;95277.31;;;19.58;64.42
11971;BME280;6045;42.682;23.294;2022-10-12T13:00:14;95287.59;;;19.46;63.98
11971;BME280;6045;42.682;23.294;2022-10-12T13:03:22;95284.88;;;19.51;62.70
11971;BME280;6045;42.682;23.294;2022-10-12T13:06:35;95285.41;;;19.48;61.82
11971;BME280;6045;42.682;23.294;2022-10-12T13:12:22;95283.72;;;19.27;63.12
11971;BME280;6045;42.682;23.294;2022-10-12T13:18:06;95290.03;;;19.37;63.48
11971;BME280;6045;42.682;23.294;2022-10-12T13:20:38;95288.09;;;19.33;63.31
11971;BME280;6045;42.682;23.294;2022-10-12T13:23:11;95278.91;;;19.39;63.94
11971;BME280;6045;42.682;23.294;2022-10-12T13:25:43;95285.97;;;19.55;63.05
11971;BME280;6045;42.682;23.294;2022-10-12T13:28:15;95281.91;;;19.57;63.07
11971;BME280;6045;42.682;23.294;2022-10-12T13:30:45;95286.81;;;19.65;62.89
11971;BME280;6045;42.682;23.294;2022-10-12T13:33:20;95287.88;;;19.64;63.07
11971;BME280;6045;42.682;23.294;2022-10-12T13:35:54;95287.91;;;19.59;64.28
11971;BME280;6045;42.682;23.294;2022-10-12T13:38:26;95280.00;;;19.58;63.13
11971;BME280;6045;42.682;23.294;2022-10-12T13:40:56;95289.78;;;19.59;63.13
11971;BME280;6045;42.682;23.294;2022-10-12T13:43:33;95287.59;;;19.56;64.11
11971;BME280;6045;42.682;23.294;2022-10-12T13:46:05;95289.25;;;19.57;64.12